sensor_id;sensor_type;location;lat;lon;timestamp;pressure;altitude;pressure_sealevel;temperature;humidity
11174;BME280;5643;50.856;12.088;2022-09-03T00:00:24;99593.56;;;16.33;62.81
11174;BME280;5643;50.856;12.088;2022-09-03T00:02:58;99607.50;;;15.53;70.72
11174;BME280;5643;50.856;12.088;2022-09-03T00:05:34;99595.31;;;15.43;69.35
11174;BME280;5643;50.856;12.088;2022-09-03T00:08:10;99600.06;;;15.94;67.48
11174;BME280;5643;50.856;12.088;2022-09-03T00:10:47;99595.88;;;15.73;68.37
11174;BME280;5643;50.856;12.088;2022-09-03T00:13:22;99592.19;;;16.29;64.41
11174;BME280;5643;50.856;12.088;2022-09-03T00:15:52;99597.09;;;15.52;68.08
11174;BME280;5643;50.856;12.088;2022-09-03T00:18:28;99600.47;;;15.99;65.63
11174;BME280;5643;50.856;12.088;2022-09-03T00:21:03;99595.44;;;16.23;64.27
11174;BME280;5643;50.856;12.088;2022-09-03T00:23:37;99598.41;;;15.93;65.49
11174;BME280;5643;50.856;12.088;2022-09-03T00:26:19;99601.53;;;15.51;69.19
11174;BME280;5643;50.856;12.088;2022-09-03T00:28:55;99599.31;;;15.84;66.65
11174;BME280;5643;50.856;12.088;2022-09-03T00:31:29;99592.31;;;15.92;67.75
11174;BME280;5643;50.856;12.088;2022-09-03T00:34:02;99592.41;;;16.18;63.71
11174;BME280;5643;50.856;12.088;2022-09-03T00:36:35;99587.22;;;16.44;64.22
11174;BME280;5643;50.856;12.088;2022-09-03T00:39:10;99592.38;;;15.83;66.29
11174;BME280;5643;50.856;12.088;2022-09-03T00:41:54;99597.13;;;15.79;67.28
11174;BME280;5643;50.856;12.088;2022-09-03T00:44:56;99603.69;;;15.19;69.27
11174;BME280;5643;50.856;12.088;2022-09-03T00:47:35;99598.59;;;15.82;66.16
11174;BME280;5643;50.856;12.088;2022-09-03T00:50:15;99602.59;;;16.31;64.15
11174;BME280;5643;50.856;12.088;2022-09-03T00:52:52;99608.31;;;15.54;69.61
11174;BME280;5643;50.856;12.088;2022-09-03T00:55:31;99614.41;;;15.08;71.25
11174;BME280;5643;50.856;12.088;2022-09-03T00:58:18;99610.38;;;14.94;72.21
11174;BME280;5643;50.856;12.088;2022-09-03T01:00:50;99603.72;;;15.46;68.12
11174;BME280;5643;50.856;12.088;2022-09-03T01:03:25;99604.97;;;16.06;66.86
11174;BME280;5643;50.856;12.088;2022-09-03T01:06:06;99608.00;;;16.11;64.70
11174;BME280;5643;50.856;12.088;2022-09-03T01:08:47;99616.78;;;14.82;71.96
11174;BME280;5643;50.856;12.088;2022-09-03T01:11:23;99611.75;;;14.98;71.12
11174;BME280;5643;50.856;12.088;2022-09-03T01:14:01;99605.47;;;15.65;68.77
11174;BME280;5643;50.856;12.088;2022-09-03T01:16:36;99615.41;;;15.34;68.90
11174;BME280;5643;50.856;12.088;2022-09-03T01:19:18;99608.22;;;15.73;67.36
11174;BME280;5643;50.856;12.088;2022-09-03T01:22:08;99613.28;;;15.47;69.25
11174;BME280;5643;50.856;12.088;2022-09-03T01:25:05;99613.53;;;15.17;71.16
11174;BME280;5643;50.856;12.088;2022-09-03T01:27:45;99614.97;;;15.48;68.48
11174;BME280;5643;50.856;12.088;2022-09-03T01:30:20;99613.16;;;15.02;72.01
11174;BME280;5643;50.856;12.088;2022-09-03T01:32:55;99611.16;;;15.23;71.42
11174;BME280;5643;50.856;12.088;2022-09-03T01:35:32;99602.75;;;15.84;66.25
11174;BME280;5643;50.856;12.088;2022-09-03T01:38:12;99598.53;;;16.18;65.35
11174;BME280;5643;50.856;12.088;2022-09-03T01:40:46;99605.34;;;15.66;66.16
11174;BME280;5643;50.856;12.088;2022-09-03T01:43:28;99596.03;;;15.72;65.81
11174;BME280;5643;50.856;12.088;2022-09-03T01:46:07;99608.25;;;15.26;68.29
11174;BME280;5643;50.856;12.088;2022-09-03T01:48:42;99604.75;;;14.79;70.97
11174;BME280;5643;50.856;12.088;2022-09-03T01:51:19;99607.16;;;15.19;70.40
11174;BME280;5643;50.856;12.088;2022-09-03T01:54:11;99607.63;;;14.96;72.00
11174;BME280;5643;50.856;12.088;2022-09-03T01:57:00;99613.88;;;14.85;71.40
11174;BME280;5643;50.856;12.088;2022-09-03T01:59:39;99614.03;;;14.55;72.54
11174;BME280;5643;50.856;12.088;2022-09-03T02:02:19;99608.13;;;15.18;69.96
11174;BME280;5643;50.856;12.088;2022-09-03T02:05:01;99609.94;;;15.64;68.18
11174;BME280;5643;50.856;12.088;2022-09-03T02:07:33;99622.28;;;14.98;68.93
11174;BME280;5643;50.856;12.088;2022-09-03T02:10:04;99613.59;;;15.34;66.96
11174;BME280;5643;50.856;12.088;2022-09-03T02:12:35;99611.22;;;15.41;67.09
11174;BME280;5643;50.856;12.088;2022-09-03T02:15:08;99613.34;;;15.38;67.09
11174;BME280;5643;50.856;12.088;2022-09-03T02:17:41;99613.00;;;15.50;66.42
11174;BME280;5643;50.856;12.088;2022-09-03T02:20:16;99612.41;;;15.19;69.84
11174;BME280;5643;50.856;12.088;2022-09-03T02:22:46;99621.75;;;14.85;71.18
11174;BME280;5643;50.856;12.088;2022-09-03T02:25:15;99622.84;;;15.02;70.46
11174;BME280;5643;50.856;12.088;2022-09-03T02:27:43;99630.84;;;15.10;69.05
11174;BME280;5643;50.856;12.088;2022-09-03T02:30:12;99626.59;;;15.46;69.40
11174;BME280;5643;50.856;12.088;2022-09-03T02:32:42;99620.06;;;15.03;70.40
11174;BME280;5643;50.856;12.088;2022-09-03T02:35:11;99626.16;;;14.94;73.98
11174;BME280;5643;50.856;12.088;2022-09-03T02:37:39;99617.63;;;15.39;70.51
11174;BME280;5643;50.856;12.088;2022-09-03T02:40:08;99620.34;;;15.56;68.68
11174;BME280;5643;50.856;12.088;2022-09-03T02:42:37;99615.41;;;15.34;69.75
11174;BME280;5643;50.856;12.088;2022-09-03T02:45:15;99614.72;;;15.78;69.57
11174;BME280;5643;50.856;12.088;2022-09-03T02:47:51;99615.53;;;16.42;65.90
11174;BME280;5643;50.856;12.088;2022-09-03T02:50:23;99619.00;;;16.25;65.13
11174;BME280;5643;50.856;12.088;2022-09-03T02:52:51;99613.16;;;16.31;64.15
11174;BME280;5643;50.856;12.088;2022-09-03T02:55:20;99606.66;;;16.43;65.76
11174;BME280;5643;50.856;12.088;2022-09-03T02:57:49;99613.09;;;15.95;64.57
11174;BME280;5643;50.856;12.088;2022-09-03T03:00:18;99610.13;;;16.26;63.76
11174;BME280;5643;50.856;12.088;2022-09-03T03:02:48;99603.28;;;16.15;63.58
11174;BME280;5643;50.856;12.088;2022-09-03T03:05:23;99609.63;;;15.21;69.64
11174;BME280;5643;50.856;12.088;2022-09-03T03:07:53;99600.34;;;15.91;65.61
11174;BME280;5643;50.856;12.088;2022-09-03T03:10:23;99599.94;;;15.68;65.40
11174;BME280;5643;50.856;12.088;2022-09-03T03:12:52;99605.56;;;15.36;65.51
11174;BME280;5643;50.856;12.088;2022-09-03T03:15:19;99614.53;;;15.06;67.31
11174;BME280;5643;50.856;12.088;2022-09-03T03:17:49;99607.44;;;15.16;68.31
11174;BME280;5643;50.856;12.088;2022-09-03T03:20:17;99613.97;;;14.93;69.18
11174;BME280;5643;50.856;12.088;2022-09-03T03:22:44;99608.31;;;15.07;67.37
11174;BME280;5643;50.856;12.088;2022-09-03T03:25:13;99608.09;;;14.72;70.04
11174;BME280;5643;50.856;12.088;2022-09-03T03:27:41;99609.31;;;14.87;67.72
11174;BME280;5643;50.856;12.088;2022-09-03T03:30:10;99605.50;;;15.09;66.91
11174;BME280;5643;50.856;12.088;2022-09-03T03:32:38;99611.41;;;14.55;68.61
11174;BME280;5643;50.856;12.088;2022-09-03T03:35:12;99606.53;;;14.79;69.50
11174;BME280;5643;50.856;12.088;2022-09-03T03:37:42;99605.41;;;14.91;68.95
11174;BME280;5643;50.856;12.088;2022-09-03T03:40:11;99611.28;;;14.56;70.75
11174;BME280;5643;50.856;12.088;2022-09-03T03:42:39;99610.28;;;14.57;70.01
11174;BME280;5643;50.856;12.088;2022-09-03T03:45:09;99608.44;;;14.29;70.83
11174;BME280;5643;50.856;12.088;2022-09-03T03:47:37;99609.78;;;13.54;74.76
11174;BME280;5643;50.856;12.088;2022-09-03T03:50:09;99614.53;;;14.10;73.31
11174;BME280;5643;50.856;12.088;2022-09-03T03:52:38;99603.22;;;14.38;70.13
11174;BME280;5643;50.856;12.088;2022-09-03T03:55:09;99599.88;;;14.17;71.34
11174;BME280;5643;50.856;12.088;2022-09-03T03:57:48;99603.09;;;14.49;67.83
11174;BME280;5643;50.856;12.088;2022-09-03T04:00:19;99599.03;;;14.07;71.93
11174;BME280;5643;50.856;12.088;2022-09-03T04:02:49;99608.69;;;14.06;71.60
11174;BME280;5643;50.856;12.088;2022-09-03T04:05:23;99603.22;;;14.48;68.81
11174;BME280;5643;50.856;12.088;2022-09-03T04:08:13;99605.28;;;14.16;68.23
11174;BME280;5643;50.856;12.088;2022-09-03T04:10:52;99592.84;;;14.37;66.85
11174;BME280;5643;50.856;12.088;2022-09-03T04:13:24;99595.41;;;13.89;69.03
11174;BME280;5643;50.856;12.088;2022-09-03T04:15:59;99603.75;;;14.23;70.27
11174;BME280;5643;50.856;12.088;2022-09-03T04:18:28;99595.94;;;14.52;67.28
11174;BME280;5643;50.856;12.088;2022-09-03T04:21:07;99600.16;;;14.33;69.15
11174;BME280;5643;50.856;12.088;2022-09-03T04:23:37;99606.66;;;14.29;67.68
11174;BME280;5643;50.856;12.088;2022-09-03T04:26:06;99606.81;;;14.37;68.63
11174;BME280;5643;50.856;12.088;2022-09-03T04:28:37;99609.88;;;13.74;70.27
11174;BME280;5643;50.856;12.088;2022-09-03T04:31:07;99603.19;;;14.09;68.92
11174;BME280;5643;50.856;12.088;2022-09-03T04:33:36;99603.72;;;14.13;67.60
11174;BME280;5643;50.856;12.088;2022-09-03T04:36:08;99606.38;;;14.32;65.54
11174;BME280;5643;50.856;12.088;2022-09-03T04:38:38;99595.50;;;14.46;67.31
11174;BME280;5643;50.856;12.088;2022-09-03T04:41:11;99616.31;;;13.60;71.10
11174;BME280;5643;50.856;12.088;2022-09-03T04:43:43;99604.88;;;14.30;67.07
11174;BME280;5643;50.856;12.088;2022-09-03T04:46:12;99608.66;;;13.17;74.66
11174;BME280;5643;50.856;12.088;2022-09-03T04:48:41;99612.03;;;12.87;78.39
11174;BME280;5643;50.856;12.088;2022-09-03T04:51:12;99606.88;;;13.88;69.80
11174;BME280;5643;50.856;12.088;2022-09-03T04:53:41;99605.69;;;14.21;69.34
11174;BME280;5643;50.856;12.088;2022-09-03T04:56:12;99603.31;;;14.08;68.78
11174;BME280;5643;50.856;12.088;2022-09-03T04:58:40;99609.69;;;14.25;66.19
11174;BME280;5643;50.856;12.088;2022-09-03T05:01:11;99608.50;;;14.48;67.00
11174;BME280;5643;50.856;12.088;2022-09-03T05:03:42;99615.16;;;13.83;70.40
11174;BME280;5643;50.856;12.088;2022-09-03T05:06:14;99621.47;;;14.78;64.96
11174;BME280;5643;50.856;12.088;2022-09-03T05:08:46;99625.66;;;14.71;66.33
11174;BME280;5643;50.856;12.088;2022-09-03T05:11:14;99623.47;;;13.98;72.70
11174;BME280;5643;50.856;12.088;2022-09-03T05:13:46;99622.84;;;14.34;68.42
11174;BME280;5643;50.856;12.088;2022-09-03T05:16:21;99619.25;;;14.93;65.21
11174;BME280;5643;50.856;12.088;2022-09-03T05:18:52;99623.41;;;14.96;63.72
11174;BME280;5643;50.856;12.088;2022-09-03T05:21:22;99627.47;;;14.61;68.09
11174;BME280;5643;50.856;12.088;2022-09-03T05:23:58;99620.88;;;15.04;67.16
11174;BME280;5643;50.856;12.088;2022-09-03T05:26:28;99618.59;;;14.52;69.83
11174;BME280;5643;50.856;12.088;2022-09-03T05:28:58;99617.91;;;14.60;70.08
11174;BME280;5643;50.856;12.088;2022-09-03T05:31:28;99616.50;;;14.75;65.93
11174;BME280;5643;50.856;12.088;2022-09-03T05:33:58;99619.03;;;13.89;72.09
11174;BME280;5643;50.856;12.088;2022-09-03T05:36:28;99619.56;;;14.80;68.14
11174;BME280;5643;50.856;12.088;2022-09-03T05:39:04;99611.09;;;14.86;67.64
11174;BME280;5643;50.856;12.088;2022-09-03T05:41:33;99621.66;;;13.89;74.93
11174;BME280;5643;50.856;12.088;2022-09-03T05:44:03;99621.78;;;14.46;73.44
11174;BME280;5643;50.856;12.088;2022-09-03T05:46:33;99620.63;;;14.20;74.58
11174;BME280;5643;50.856;12.088;2022-09-03T05:49:06;99630.22;;;15.54;70.45
11174;BME280;5643;50.856;12.088;2022-09-03T05:51:36;99622.50;;;15.98;67.54
11174;BME280;5643;50.856;12.088;2022-09-03T05:54:09;99620.59;;;17.40;62.84
11174;BME280;5643;50.856;12.088;2022-09-03T05:56:38;99613.19;;;18.27;59.76
11174;BME280;5643;50.856;12.088;2022-09-03T05:59:08;99616.81;;;17.68;60.78
11174;BME280;5643;50.856;12.088;2022-09-03T06:01:39;99612.44;;;20.10;54.69
11174;BME280;5643;50.856;12.088;2022-09-03T06:04:10;99623.00;;;19.16;56.23
11174;BME280;5643;50.856;12.088;2022-09-03T06:06:45;99615.72;;;19.81;55.90
11174;BME280;5643;50.856;12.088;2022-09-03T06:09:15;99607.84;;;21.18;51.34
11174;BME280;5643;50.856;12.088;2022-09-03T06:11:46;99597.25;;;24.07;45.80
11174;BME280;5643;50.856;12.088;2022-09-03T06:14:17;99593.69;;;25.20;41.92
11174;BME280;5643;50.856;12.088;2022-09-03T06:16:56;99608.91;;;21.82;48.27
11174;BME280;5643;50.856;12.088;2022-09-03T06:19:24;99606.72;;;22.36;47.83
11174;BME280;5643;50.856;12.088;2022-09-03T06:21:53;99614.03;;;23.26;45.10
11174;BME280;5643;50.856;12.088;2022-09-03T06:24:21;99609.97;;;23.30;45.17
11174;BME280;5643;50.856;12.088;2022-09-03T06:26:52;99594.94;;;25.11;41.82
11174;BME280;5643;50.856;12.088;2022-09-03T06:29:20;99601.94;;;25.12;41.16
11174;BME280;5643;50.856;12.088;2022-09-03T06:31:48;99598.16;;;26.48;39.20
11174;BME280;5643;50.856;12.088;2022-09-03T06:34:38;99606.94;;;26.30;39.41
11174;BME280;5643;50.856;12.088;2022-09-03T06:37:10;99597.09;;;26.11;38.89
11174;BME280;5643;50.856;12.088;2022-09-03T06:39:39;99602.50;;;24.68;41.56
11174;BME280;5643;50.856;12.088;2022-09-03T06:42:06;99594.63;;;25.65;40.52
11174;BME280;5643;50.856;12.088;2022-09-03T06:44:34;99593.03;;;25.58;39.90
11174;BME280;5643;50.856;12.088;2022-09-03T06:47:05;99593.09;;;24.72;41.65
11174;BME280;5643;50.856;12.088;2022-09-03T06:49:36;99588.25;;;25.66;40.42
11174;BME280;5643;50.856;12.088;2022-09-03T06:52:05;99588.22;;;23.54;44.60
11174;BME280;5643;50.856;12.088;2022-09-03T06:57:47;99603.16;;;21.64;50.22
11174;BME280;5643;50.856;12.088;2022-09-03T07:00:16;99594.38;;;21.63;49.96
11174;BME280;5643;50.856;12.088;2022-09-03T07:02:44;99593.50;;;21.92;49.88
11174;BME280;5643;50.856;12.088;2022-09-03T07:05:16;99587.72;;;21.89;51.42
11174;BME280;5643;50.856;12.088;2022-09-03T07:07:46;99590.16;;;22.20;50.25
11174;BME280;5643;50.856;12.088;2022-09-03T07:10:13;99585.50;;;21.92;50.07
11174;BME280;5643;50.856;12.088;2022-09-03T07:12:50;99584.50;;;22.08;50.34
11174;BME280;5643;50.856;12.088;2022-09-03T07:15:17;99590.28;;;22.54;50.86
11174;BME280;5643;50.856;12.088;2022-09-03T07:17:49;99584.03;;;22.62;50.50
11174;BME280;5643;50.856;12.088;2022-09-03T07:20:17;99585.03;;;22.39;49.18
11174;BME280;5643;50.856;12.088;2022-09-03T07:22:45;99582.50;;;22.10;49.76
11174;BME280;5643;50.856;12.088;2022-09-03T07:25:14;99581.88;;;23.27;49.19
11174;BME280;5643;50.856;12.088;2022-09-03T07:27:42;99587.78;;;22.46;48.68
11174;BME280;5643;50.856;12.088;2022-09-03T07:30:14;99578.97;;;22.45;49.38
11174;BME280;5643;50.856;12.088;2022-09-03T07:32:43;99574.38;;;22.82;47.73
11174;BME280;5643;50.856;12.088;2022-09-03T07:35:12;99571.38;;;24.08;47.42
11174;BME280;5643;50.856;12.088;2022-09-03T07:37:41;99568.47;;;23.90;49.39
11174;BME280;5643;50.856;12.088;2022-09-03T07:40:10;99556.28;;;24.48;47.37
11174;BME280;5643;50.856;12.088;2022-09-03T07:42:41;99556.69;;;24.58;46.51
11174;BME280;5643;50.856;12.088;2022-09-03T07:45:09;99566.97;;;23.05;47.99
11174;BME280;5643;50.856;12.088;2022-09-03T07:47:45;99563.34;;;23.95;48.18
11174;BME280;5643;50.856;12.088;2022-09-03T07:50:15;99560.28;;;24.04;47.56
11174;BME280;5643;50.856;12.088;2022-09-03T07:52:44;99565.09;;;24.29;46.65
11174;BME280;5643;50.856;12.088;2022-09-03T07:55:14;99555.69;;;24.85;45.38
11174;BME280;5643;50.856;12.088;2022-09-03T07:57:43;99558.13;;;24.47;47.24
11174;BME280;5643;50.856;12.088;2022-09-03T08:00:13;99555.06;;;24.70;45.80
11174;BME280;5643;50.856;12.088;2022-09-03T08:02:44;99564.25;;;24.21;47.03
11174;BME280;5643;50.856;12.088;2022-09-03T08:05:12;99553.78;;;25.32;46.63
11174;BME280;5643;50.856;12.088;2022-09-03T08:07:39;99559.22;;;24.92;43.88
11174;BME280;5643;50.856;12.088;2022-09-03T08:10:08;99565.94;;;23.75;47.35
11174;BME280;5643;50.856;12.088;2022-09-03T08:12:39;99556.19;;;25.46;45.47
11174;BME280;5643;50.856;12.088;2022-09-03T08:15:07;99552.31;;;25.94;44.29
11174;BME280;5643;50.856;12.088;2022-09-03T08:17:36;99547.84;;;26.25;44.24
11174;BME280;5643;50.856;12.088;2022-09-03T08:20:06;99552.25;;;26.07;43.09
11174;BME280;5643;50.856;12.088;2022-09-03T08:22:35;99553.38;;;26.55;44.90
11174;BME280;5643;50.856;12.088;2022-09-03T08:25:03;99553.72;;;26.65;42.79
11174;BME280;5643;50.856;12.088;2022-09-03T08:27:33;99545.88;;;25.70;42.30
11174;BME280;5643;50.856;12.088;2022-09-03T08:30:02;99545.88;;;25.70;43.91
11174;BME280;5643;50.856;12.088;2022-09-03T08:32:30;99539.94;;;25.99;43.21
11174;BME280;5643;50.856;12.088;2022-09-03T08:34:57;99537.84;;;26.64;42.00
11174;BME280;5643;50.856;12.088;2022-09-03T08:37:26;99529.09;;;26.25;41.63
11174;BME280;5643;50.856;12.088;2022-09-03T08:39:55;99534.47;;;25.17;41.53
11174;BME280;5643;50.856;12.088;2022-09-03T08:42:40;99528.78;;;26.90;40.90
11174;BME280;5643;50.856;12.088;2022-09-03T08:45:14;99532.09;;;26.85;38.91
11174;BME280;5643;50.856;12.088;2022-09-03T08:48:00;99521.78;;;26.01;39.77
11174;BME280;5643;50.856;12.088;2022-09-03T08:50:35;99524.63;;;26.69;37.57
11174;BME280;5643;50.856;12.088;2022-09-03T08:53:11;99523.44;;;26.40;37.89
11174;BME280;5643;50.856;12.088;2022-09-03T08:55:42;99522.97;;;26.68;38.42
11174;BME280;5643;50.856;12.088;2022-09-03T08:58:21;99523.25;;;27.28;35.52
11174;BME280;5643;50.856;12.088;2022-09-03T09:00:56;99523.94;;;26.98;36.29
11174;BME280;5643;50.856;12.088;2022-09-03T09:03:36;99518.53;;;27.41;37.81
11174;BME280;5643;50.856;12.088;2022-09-03T09:06:12;99528.94;;;26.45;35.38
11174;BME280;5643;50.856;12.088;2022-09-03T09:08:58;99518.06;;;25.71;33.96
11174;BME280;5643;50.856;12.088;2022-09-03T09:11:45;99518.75;;;26.79;36.60
11174;BME280;5643;50.856;12.088;2022-09-03T09:14:18;99513.47;;;26.97;36.18
11174;BME280;5643;50.856;12.088;2022-09-03T09:16:53;99510.53;;;27.89;34.58
11174;BME280;5643;50.856;12.088;2022-09-03T09:19:41;99503.63;;;27.45;35.17
11174;BME280;5643;50.856;12.088;2022-09-03T09:22:28;99509.53;;;27.36;34.05
11174;BME280;5643;50.856;12.088;2022-09-03T09:25:07;99511.16;;;26.76;34.48
11174;BME280;5643;50.856;12.088;2022-09-03T09:27:52;99498.56;;;27.55;33.74
11174;BME280;5643;50.856;12.088;2022-09-03T09:30:23;99507.97;;;26.85;35.99
11174;BME280;5643;50.856;12.088;2022-09-03T09:32:50;99504.06;;;26.63;35.26
11174;BME280;5643;50.856;12.088;2022-09-03T09:35:21;99499.66;;;26.50;33.51
11174;BME280;5643;50.856;12.088;2022-09-03T09:38:04;99496.84;;;26.39;33.42
11174;BME280;5643;50.856;12.088;2022-09-03T09:43:47;99488.91;;;27.18;32.48
11174;BME280;5643;50.856;12.088;2022-09-03T09:46:20;99484.44;;;27.12;32.69
11174;BME280;5643;50.856;12.088;2022-09-03T09:48:50;99495.41;;;26.86;32.85
11174;BME280;5643;50.856;12.088;2022-09-03T09:51:22;99489.97;;;26.49;33.83
11174;BME280;5643;50.856;12.088;2022-09-03T09:54:00;99494.19;;;26.39;33.82
11174;BME280;5643;50.856;12.088;2022-09-03T09:56:28;99488.28;;;26.30;33.34
11174;BME280;5643;50.856;12.088;2022-09-03T09:59:07;99475.72;;;27.53;34.13
11174;BME280;5643;50.856;12.088;2022-09-03T10:01:37;99480.47;;;27.14;33.03
11174;BME280;5643;50.856;12.088;2022-09-03T10:04:10;99486.13;;;26.63;33.40
11174;BME280;5643;50.856;12.088;2022-09-03T10:06:39;99475.72;;;27.17;32.85
11174;BME280;5643;50.856;12.088;2022-09-03T10:09:27;99484.34;;;27.37;34.56
11174;BME280;5643;50.856;12.088;2022-09-03T10:12:11;99492.31;;;25.76;33.55
11174;BME280;5643;50.856;12.088;2022-09-03T10:14:52;99488.69;;;26.77;34.01
11174;BME280;5643;50.856;12.088;2022-09-03T10:17:34;99480.13;;;26.93;31.14
11174;BME280;5643;50.856;12.088;2022-09-03T10:20:21;99481.31;;;25.91;32.89
11174;BME280;5643;50.856;12.088;2022-09-03T10:23:04;99485.16;;;27.19;33.53
11174;BME280;5643;50.856;12.088;2022-09-03T10:25:39;99479.25;;;26.24;33.42
11174;BME280;5643;50.856;12.088;2022-09-03T10:28:14;99471.19;;;26.00;35.65
11174;BME280;5643;50.856;12.088;2022-09-03T10:31:06;99476.69;;;26.79;34.45
11174;BME280;5643;50.856;12.088;2022-09-03T10:33:43;99470.59;;;25.53;35.96
11174;BME280;5643;50.856;12.088;2022-09-03T10:36:20;99478.09;;;26.63;34.22
11174;BME280;5643;50.856;12.088;2022-09-03T10:38:53;99472.84;;;26.75;33.37
11174;BME280;5643;50.856;12.088;2022-09-03T10:41:42;99467.53;;;26.68;31.43
11174;BME280;5643;50.856;12.088;2022-09-03T10:44:46;99460.34;;;28.02;32.37
11174;BME280;5643;50.856;12.088;2022-09-03T10:47:28;99472.09;;;26.86;32.65
11174;BME280;5643;50.856;12.088;2022-09-03T10:50:09;99467.16;;;26.83;32.57
11174;BME280;5643;50.856;12.088;2022-09-03T10:53:10;99466.94;;;27.28;31.69
11174;BME280;5643;50.856;12.088;2022-09-03T10:55:59;99464.53;;;27.97;33.08
11174;BME280;5643;50.856;12.088;2022-09-03T10:59:00;99464.88;;;28.19;33.70
11174;BME280;5643;50.856;12.088;2022-09-03T11:01:39;99461.69;;;27.81;31.86
11174;BME280;5643;50.856;12.088;2022-09-03T11:04:29;99452.88;;;27.62;32.19
11174;BME280;5643;50.856;12.088;2022-09-03T11:07:03;99444.16;;;28.08;29.76
11174;BME280;5643;50.856;12.088;2022-09-03T11:09:39;99446.16;;;29.17;31.06
11174;BME280;5643;50.856;12.088;2022-09-03T11:12:33;99447.94;;;28.54;29.29
11174;BME280;5643;50.856;12.088;2022-09-03T11:15:14;99438.50;;;28.74;31.78
11174;BME280;5643;50.856;12.088;2022-09-03T11:17:51;99436.06;;;30.43;30.86
11174;BME280;5643;50.856;12.088;2022-09-03T11:20:26;99432.75;;;28.71;29.68
11174;BME280;5643;50.856;12.088;2022-09-03T11:22:59;99439.19;;;29.45;30.03
11174;BME280;5643;50.856;12.088;2022-09-03T11:25:36;99437.56;;;28.57;30.71
11174;BME280;5643;50.856;12.088;2022-09-03T11:28:25;99429.13;;;30.14;28.67
11174;BME280;5643;50.856;12.088;2022-09-03T11:31:15;99429.63;;;27.56;30.29
11174;BME280;5643;50.856;12.088;2022-09-03T11:33:48;99417.50;;;29.11;31.22
11174;BME280;5643;50.856;12.088;2022-09-03T11:36:29;99414.16;;;29.44;30.12
11174;BME280;5643;50.856;12.088;2022-09-03T11:38:57;99422.78;;;30.20;28.33
11174;BME280;5643;50.856;12.088;2022-09-03T11:41:33;99419.06;;;29.07;30.28
11174;BME280;5643;50.856;12.088;2022-09-03T11:44:15;99415.34;;;29.93;29.29
11174;BME280;5643;50.856;12.088;2022-09-03T11:46:52;99412.22;;;30.35;28.68
11174;BME280;5643;50.856;12.088;2022-09-03T11:49:29;99405.84;;;31.18;28.84
11174;BME280;5643;50.856;12.088;2022-09-03T11:55:31;99407.47;;;31.46;28.65
11174;BME280;5643;50.856;12.088;2022-09-03T11:58:22;99410.06;;;31.09;26.71
11174;BME280;5643;50.856;12.088;2022-09-03T12:00:52;99400.16;;;31.41;26.62
11174;BME280;5643;50.856;12.088;2022-09-03T12:03:25;99409.31;;;30.20;27.87
11174;BME280;5643;50.856;12.088;2022-09-03T12:06:20;99414.19;;;30.23;28.19
11174;BME280;5643;50.856;12.088;2022-09-03T12:12:03;99393.69;;;30.99;26.80
11174;BME280;5643;50.856;12.088;2022-09-03T12:14:41;99392.91;;;29.59;28.16
11174;BME280;5643;50.856;12.088;2022-09-03T12:17:20;99393.59;;;29.27;28.54
11174;BME280;5643;50.856;12.088;2022-09-03T12:19:52;99396.28;;;29.83;29.00
11174;BME280;5643;50.856;12.088;2022-09-03T12:22:22;99389.59;;;31.61;26.62
11174;BME280;5643;50.856;12.088;2022-09-03T12:24:52;99390.03;;;30.83;27.14
11174;BME280;5643;50.856;12.088;2022-09-03T12:27:32;99393.28;;;30.13;28.76
11174;BME280;5643;50.856;12.088;2022-09-03T12:30:12;99394.34;;;30.29;29.42
11174;BME280;5643;50.856;12.088;2022-09-03T12:32:41;99386.00;;;31.29;27.67
11174;BME280;5643;50.856;12.088;2022-09-03T12:35:15;99383.97;;;31.68;27.12
11174;BME280;5643;50.856;12.088;2022-09-03T12:37:50;99378.81;;;31.66;27.36
11174;BME280;5643;50.856;12.088;2022-09-03T12:40:21;99379.38;;;31.95;27.54
11174;BME280;5643;50.856;12.088;2022-09-03T12:42:54;99386.59;;;30.49;26.73
11174;BME280;5643;50.856;12.088;2022-09-03T12:45:25;99378.00;;;31.66;26.95
11174;BME280;5643;50.856;12.088;2022-09-03T12:47:53;99374.13;;;30.65;26.84
11174;BME280;5643;50.856;12.088;2022-09-03T12:50:23;99374.75;;;29.83;27.75
11174;BME280;5643;50.856;12.088;2022-09-03T12:52:57;99367.66;;;31.31;26.68
11174;BME280;5643;50.856;12.088;2022-09-03T12:55:35;99369.19;;;31.22;29.35
11174;BME280;5643;50.856;12.088;2022-09-03T12:58:09;99378.13;;;29.90;29.04
11174;BME280;5643;50.856;12.088;2022-09-03T13:00:42;99358.09;;;30.97;28.19
11174;BME280;5643;50.856;12.088;2022-09-03T13:03:16;99359.41;;;31.16;27.07
11174;BME280;5643;50.856;12.088;2022-09-03T13:05:49;99357.69;;;31.31;26.96
11174;BME280;5643;50.856;12.088;2022-09-03T13:08:22;99367.59;;;30.61;28.37
11174;BME280;5643;50.856;12.088;2022-09-03T13:10:55;99362.22;;;30.05;28.85
11174;BME280;5643;50.856;12.088;2022-09-03T13:13:28;99356.81;;;28.75;29.25
11174;BME280;5643;50.856;12.088;2022-09-03T13:16:22;99364.97;;;29.94;28.85
11174;BME280;5643;50.856;12.088;2022-09-03T13:18:58;99355.34;;;29.24;29.15
11174;BME280;5643;50.856;12.088;2022-09-03T13:21:40;99359.16;;;28.37;30.05
11174;BME280;5643;50.856;12.088;2022-09-03T13:24:22;99352.38;;;28.58;28.91
11174;BME280;5643;50.856;12.088;2022-09-03T13:27:02;99347.28;;;29.24;29.16
11174;BME280;5643;50.856;12.088;2022-09-03T13:29:51;99352.38;;;27.88;30.01
11174;BME280;5643;50.856;12.088;2022-09-03T13:32:31;99357.91;;;28.28;30.15
11174;BME280;5643;50.856;12.088;2022-09-03T13:35:08;99350.66;;;28.28;29.82
11174;BME280;5643;50.856;12.088;2022-09-03T13:37:40;99354.25;;;27.99;31.10
11174;BME280;5643;50.856;12.088;2022-09-03T13:40:17;99348.78;;;28.17;29.85
11174;BME280;5643;50.856;12.088;2022-09-03T13:42:51;99347.81;;;28.70;28.91
11174;BME280;5643;50.856;12.088;2022-09-03T13:45:35;99344.19;;;28.88;28.71
11174;BME280;5643;50.856;12.088;2022-09-03T13:48:09;99349.38;;;28.31;29.75
11174;BME280;5643;50.856;12.088;2022-09-03T13:51:02;99342.94;;;28.44;30.86